sensor_id;sensor_type;location;lat;lon;timestamp;P1;durP1;ratioP1;P2;durP2;ratioP2
59273;SDS011;45044;41.572;24.730;2022-12-18T00:02:20;39.65;;;24.85;;
59273;SDS011;45044;41.572;24.730;2022-12-18T00:04:48;38.97;;;26.77;;
59273;SDS011;45044;41.572;24.730;2022-12-18T00:07:14;43.35;;;27.50;;
59273;SDS011;45044;41.572;24.730;2022-12-18T00:09:41;41.53;;;27.35;;
59273;SDS011;45044;41.572;24.730;2022-12-18T00:12:08;43.92;;;27.80;;
59273;SDS011;45044;41.572;24.730;2022-12-18T00:14:41;38.28;;;26.33;;
59273;SDS011;45044;41.572;24.730;2022-12-18T00:17:10;31.52;;;19.42;;
59273;SDS011;45044;41.572;24.730;2022-12-18T00:19:37;30.35;;;19.60;;
59273;SDS011;45044;41.572;24.730;2022-12-18T00:22:04;30.88;;;23.25;;
59273;SDS011;45044;41.572;24.730;2022-12-18T00:24:32;30.38;;;21.48;;
59273;SDS011;45044;41.572;24.730;2022-12-18T00:26:59;44.47;;;29.25;;
59273;SDS011;45044;41.572;24.730;2022-12-18T00:29:25;38.42;;;26.63;;
59273;SDS011;45044;41.572;24.730;2022-12-18T00:31:59;34.70;;;24.35;;
59273;SDS011;45044;41.572;24.730;2022-12-18T00:34:26;33.25;;;22.55;;
59273;SDS011;45044;41.572;24.730;2022-12-18T00:36:53;34.88;;;23.92;;
59273;SDS011;45044;41.572;24.730;2022-12-18T00:39:20;33.33;;;23.17;;
59273;SDS011;45044;41.572;24.730;2022-12-18T00:41:47;31.20;;;21.98;;
59273;SDS011;45044;41.572;24.730;2022-12-18T00:44:33;35.10;;;23.58;;
59273;SDS011;45044;41.572;24.730;2022-12-18T00:47:00;37.97;;;25.20;;
59273;SDS011;45044;41.572;24.730;2022-12-18T00:49:26;40.05;;;25.08;;
59273;SDS011;45044;41.572;24.730;2022-12-18T00:51:53;31.27;;;21.60;;
59273;SDS011;45044;41.572;24.730;2022-12-18T00:54:21;29.25;;;19.60;;
59273;SDS011;45044;41.572;24.730;2022-12-18T00:56:48;28.88;;;18.73;;
59273;SDS011;45044;41.572;24.730;2022-12-18T00:59:18;25.80;;;18.65;;
59273;SDS011;45044;41.572;24.730;2022-12-18T01:01:45;24.80;;;16.42;;
59273;SDS011;45044;41.572;24.730;2022-12-18T01:04:13;23.27;;;15.45;;
59273;SDS011;45044;41.572;24.730;2022-12-18T01:06:40;21.92;;;14.60;;
59273;SDS011;45044;41.572;24.730;2022-12-18T01:09:07;20.98;;;14.85;;
59273;SDS011;45044;41.572;24.730;2022-12-18T01:11:33;24.83;;;16.10;;
59273;SDS011;45044;41.572;24.730;2022-12-18T01:14:00;20.63;;;13.48;;
59273;SDS011;45044;41.572;24.730;2022-12-18T01:16:27;18.70;;;13.43;;
59273;SDS011;45044;41.572;24.730;2022-12-18T01:18:54;18.83;;;12.52;;
59273;SDS011;45044;41.572;24.730;2022-12-18T01:21:21;19.23;;;12.25;;
59273;SDS011;45044;41.572;24.730;2022-12-18T01:23:53;20.17;;;12.80;;
59273;SDS011;45044;41.572;24.730;2022-12-18T01:26:20;19.85;;;13.68;;
59273;SDS011;45044;41.572;24.730;2022-12-18T01:28:48;19.10;;;11.68;;
59273;SDS011;45044;41.572;24.730;2022-12-18T01:31:19;18.63;;;11.25;;
59273;SDS011;45044;41.572;24.730;2022-12-18T01:33:51;21.38;;;12.25;;
59273;SDS011;45044;41.572;24.730;2022-12-18T01:36:20;20.38;;;13.25;;
59273;SDS011;45044;41.572;24.730;2022-12-18T01:38:48;19.70;;;12.15;;
59273;SDS011;45044;41.572;24.730;2022-12-18T01:41:16;19.42;;;12.23;;
59273;SDS011;45044;41.572;24.730;2022-12-18T01:46:22;18.08;;;12.05;;
59273;SDS011;45044;41.572;24.730;2022-12-18T01:48:50;19.67;;;12.75;;
59273;SDS011;45044;41.572;24.730;2022-12-18T01:51:19;21.02;;;12.77;;
59273;SDS011;45044;41.572;24.730;2022-12-18T01:53:47;17.23;;;12.23;;
59273;SDS011;45044;41.572;24.730;2022-12-18T01:56:16;20.45;;;12.63;;
59273;SDS011;45044;41.572;24.730;2022-12-18T01:59:04;20.55;;;12.15;;
59273;SDS011;45044;41.572;24.730;2022-12-18T02:01:36;24.38;;;14.00;;
59273;SDS011;45044;41.572;24.730;2022-12-18T02:04:38;18.48;;;12.25;;
59273;SDS011;45044;41.572;24.730;2022-12-18T02:09:26;18.88;;;10.93;;
59273;SDS011;45044;41.572;24.730;2022-12-18T02:14:38;19.88;;;13.63;;
59273;SDS011;45044;41.572;24.730;2022-12-18T02:25:16;19.48;;;12.40;;
59273;SDS011;45044;41.572;24.730;2022-12-18T02:27:50;19.15;;;13.40;;
59273;SDS011;45044;41.572;24.730;2022-12-18T02:30:18;20.85;;;13.52;;
59273;SDS011;45044;41.572;24.730;2022-12-18T02:32:47;19.10;;;13.68;;
59273;SDS011;45044;41.572;24.730;2022-12-18T02:35:20;36.28;;;24.63;;
59273;SDS011;45044;41.572;24.730;2022-12-18T02:37:53;26.40;;;16.10;;
59273;SDS011;45044;41.572;24.730;2022-12-18T02:40:21;22.50;;;15.23;;
59273;SDS011;45044;41.572;24.730;2022-12-18T02:42:50;27.85;;;22.08;;
59273;SDS011;45044;41.572;24.730;2022-12-18T02:45:17;26.00;;;17.65;;
59273;SDS011;45044;41.572;24.730;2022-12-18T02:47:45;23.48;;;16.42;;
59273;SDS011;45044;41.572;24.730;2022-12-18T03:00:52;18.88;;;12.98;;
59273;SDS011;45044;41.572;24.730;2022-12-18T03:03:40;17.33;;;10.57;;
59273;SDS011;45044;41.572;24.730;2022-12-18T03:06:13;17.27;;;9.45;;
59273;SDS011;45044;41.572;24.730;2022-12-18T03:08:42;19.48;;;11.20;;
59273;SDS011;45044;41.572;24.730;2022-12-18T03:11:13;18.88;;;11.38;;
59273;SDS011;45044;41.572;24.730;2022-12-18T03:16:12;22.08;;;14.88;;
59273;SDS011;45044;41.572;24.730;2022-12-18T03:21:16;17.73;;;12.00;;
59273;SDS011;45044;41.572;24.730;2022-12-18T03:23:48;28.02;;;15.27;;
59273;SDS011;45044;41.572;24.730;2022-12-18T03:26:18;22.35;;;14.40;;
59273;SDS011;45044;41.572;24.730;2022-12-18T03:28:53;17.83;;;11.93;;
59273;SDS011;45044;41.572;24.730;2022-12-18T03:31:25;21.27;;;15.65;;
59273;SDS011;45044;41.572;24.730;2022-12-18T03:33:56;20.95;;;15.30;;
59273;SDS011;45044;41.572;24.730;2022-12-18T03:36:26;22.50;;;14.55;;
59273;SDS011;45044;41.572;24.730;2022-12-18T03:38:53;26.30;;;17.77;;
59273;SDS011;45044;41.572;24.730;2022-12-18T03:41:29;28.75;;;19.98;;
59273;SDS011;45044;41.572;24.730;2022-12-18T03:47:16;22.23;;;12.02;;
59273;SDS011;45044;41.572;24.730;2022-12-18T03:52:57;26.33;;;16.08;;
59273;SDS011;45044;41.572;24.730;2022-12-18T03:55:32;26.65;;;14.65;;
59273;SDS011;45044;41.572;24.730;2022-12-18T03:58:01;24.63;;;14.55;;
59273;SDS011;45044;41.572;24.730;2022-12-18T04:00:31;26.73;;;15.23;;
59273;SDS011;45044;41.572;24.730;2022-12-18T04:02:59;28.85;;;14.82;;
59273;SDS011;45044;41.572;24.730;2022-12-18T04:05:28;18.88;;;11.70;;
59273;SDS011;45044;41.572;24.730;2022-12-18T04:07:56;24.83;;;17.63;;
59273;SDS011;45044;41.572;24.730;2022-12-18T04:10:24;25.98;;;18.10;;
59273;SDS011;45044;41.572;24.730;2022-12-18T04:12:50;27.15;;;18.00;;
59273;SDS011;45044;41.572;24.730;2022-12-18T04:15:21;20.77;;;14.05;;
59273;SDS011;45044;41.572;24.730;2022-12-18T04:17:48;18.08;;;12.23;;
59273;SDS011;45044;41.572;24.730;2022-12-18T04:20:16;22.40;;;15.15;;
59273;SDS011;45044;41.572;24.730;2022-12-18T04:22:43;23.88;;;14.65;;
59273;SDS011;45044;41.572;24.730;2022-12-18T04:25:10;21.05;;;15.00;;
59273;SDS011;45044;41.572;24.730;2022-12-18T04:27:36;16.67;;;9.90;;
59273;SDS011;45044;41.572;24.730;2022-12-18T04:30:03;16.52;;;11.48;;
59273;SDS011;45044;41.572;24.730;2022-12-18T04:32:30;18.63;;;10.85;;
59273;SDS011;45044;41.572;24.730;2022-12-18T04:34:57;23.58;;;13.80;;
59273;SDS011;45044;41.572;24.730;2022-12-18T04:37:23;20.73;;;12.88;;
59273;SDS011;45044;41.572;24.730;2022-12-18T04:39:51;22.30;;;13.55;;
59273;SDS011;45044;41.572;24.730;2022-12-18T04:42:17;21.38;;;12.00;;
59273;SDS011;45044;41.572;24.730;2022-12-18T04:44:44;21.17;;;12.27;;
59273;SDS011;45044;41.572;24.730;2022-12-18T04:47:11;18.50;;;11.43;;
59273;SDS011;45044;41.572;24.730;2022-12-18T04:49:37;23.00;;;12.70;;
59273;SDS011;45044;41.572;24.730;2022-12-18T04:52:04;23.13;;;13.75;;
59273;SDS011;45044;41.572;24.730;2022-12-18T04:54:31;22.90;;;15.18;;
59273;SDS011;45044;41.572;24.730;2022-12-18T04:56:58;25.15;;;14.85;;
59273;SDS011;45044;41.572;24.730;2022-12-18T04:59:24;20.25;;;13.75;;
59273;SDS011;45044;41.572;24.730;2022-12-18T05:01:51;26.40;;;17.77;;
59273;SDS011;45044;41.572;24.730;2022-12-18T05:04:18;27.40;;;19.50;;
59273;SDS011;45044;41.572;24.730;2022-12-18T05:06:45;34.92;;;23.00;;
59273;SDS011;45044;41.572;24.730;2022-12-18T05:09:12;27.98;;;21.48;;
59273;SDS011;45044;41.572;24.730;2022-12-18T05:11:39;36.03;;;21.45;;
59273;SDS011;45044;41.572;24.730;2022-12-18T05:14:05;46.80;;;22.80;;
59273;SDS011;45044;41.572;24.730;2022-12-18T05:16:32;41.22;;;25.15;;
59273;SDS011;45044;41.572;24.730;2022-12-18T05:19:00;32.22;;;16.73;;
59273;SDS011;45044;41.572;24.730;2022-12-18T05:21:26;56.10;;;27.42;;
59273;SDS011;45044;41.572;24.730;2022-12-18T05:23:53;54.67;;;28.83;;
59273;SDS011;45044;41.572;24.730;2022-12-18T05:26:20;69.80;;;27.48;;
59273;SDS011;45044;41.572;24.730;2022-12-18T05:28:47;61.53;;;26.17;;
59273;SDS011;45044;41.572;24.730;2022-12-18T05:31:13;59.70;;;27.88;;
59273;SDS011;45044;41.572;24.730;2022-12-18T05:33:40;49.20;;;20.77;;
59273;SDS011;45044;41.572;24.730;2022-12-18T05:36:08;80.47;;;26.15;;
59273;SDS011;45044;41.572;24.730;2022-12-18T05:38:37;65.43;;;21.65;;
59273;SDS011;45044;41.572;24.730;2022-12-18T05:41:05;61.42;;;23.98;;
59273;SDS011;45044;41.572;24.730;2022-12-18T05:43:33;68.32;;;21.83;;
59273;SDS011;45044;41.572;24.730;2022-12-18T05:46:05;63.42;;;20.10;;
59273;SDS011;45044;41.572;24.730;2022-12-18T05:48:40;75.63;;;26.63;;
59273;SDS011;45044;41.572;24.730;2022-12-18T05:51:12;76.47;;;30.40;;
59273;SDS011;45044;41.572;24.730;2022-12-18T05:53:41;199.25;;;116.20;;
59273;SDS011;45044;41.572;24.730;2022-12-18T05:56:13;112.93;;;69.50;;
59273;SDS011;45044;41.572;24.730;2022-12-18T05:58:42;162.60;;;78.15;;
59273;SDS011;45044;41.572;24.730;2022-12-18T06:01:10;192.90;;;88.43;;
59273;SDS011;45044;41.572;24.730;2022-12-18T06:03:43;113.07;;;54.17;;
59273;SDS011;45044;41.572;24.730;2022-12-18T06:06:15;75.43;;;35.15;;
59273;SDS011;45044;41.572;24.730;2022-12-18T06:08:47;67.30;;;36.50;;
59273;SDS011;45044;41.572;24.730;2022-12-18T06:11:16;70.78;;;36.67;;
59273;SDS011;45044;41.572;24.730;2022-12-18T06:13:45;57.47;;;33.42;;
59273;SDS011;45044;41.572;24.730;2022-12-18T06:16:12;54.63;;;33.58;;
59273;SDS011;45044;41.572;24.730;2022-12-18T06:18:39;63.70;;;41.38;;
59273;SDS011;45044;41.572;24.730;2022-12-18T06:21:06;54.70;;;37.30;;
59273;SDS011;45044;41.572;24.730;2022-12-18T06:23:35;54.08;;;36.70;;
59273;SDS011;45044;41.572;24.730;2022-12-18T06:26:06;53.97;;;36.53;;
59273;SDS011;45044;41.572;24.730;2022-12-18T06:28:35;56.13;;;36.75;;
59273;SDS011;45044;41.572;24.730;2022-12-18T06:31:02;44.45;;;29.45;;
59273;SDS011;45044;41.572;24.730;2022-12-18T06:33:30;62.70;;;37.00;;
59273;SDS011;45044;41.572;24.730;2022-12-18T06:36:01;84.88;;;44.28;;
59273;SDS011;45044;41.572;24.730;2022-12-18T06:38:39;75.38;;;50.78;;
59273;SDS011;45044;41.572;24.730;2022-12-18T06:41:09;63.40;;;45.10;;
59273;SDS011;45044;41.572;24.730;2022-12-18T06:43:37;54.10;;;40.85;;
59273;SDS011;45044;41.572;24.730;2022-12-18T06:46:05;63.25;;;42.25;;
59273;SDS011;45044;41.572;24.730;2022-12-18T06:48:32;59.33;;;41.58;;
59273;SDS011;45044;41.572;24.730;2022-12-18T06:50:59;89.22;;;54.03;;
59273;SDS011;45044;41.572;24.730;2022-12-18T06:53:26;81.13;;;51.90;;
59273;SDS011;45044;41.572;24.730;2022-12-18T06:56:03;76.63;;;48.85;;
59273;SDS011;45044;41.572;24.730;2022-12-18T06:58:36;111.53;;;74.07;;
59273;SDS011;45044;41.572;24.730;2022-12-18T07:01:04;83.30;;;60.35;;
59273;SDS011;45044;41.572;24.730;2022-12-18T07:03:33;101.68;;;63.65;;
59273;SDS011;45044;41.572;24.730;2022-12-18T07:05:59;75.35;;;53.47;;
59273;SDS011;45044;41.572;24.730;2022-12-18T07:08:26;80.90;;;56.33;;
59273;SDS011;45044;41.572;24.730;2022-12-18T07:10:55;75.22;;;54.42;;
59273;SDS011;45044;41.572;24.730;2022-12-18T07:13:22;80.70;;;55.42;;
59273;SDS011;45044;41.572;24.730;2022-12-18T07:15:49;78.70;;;54.42;;
59273;SDS011;45044;41.572;24.730;2022-12-18T07:18:16;66.13;;;46.10;;
59273;SDS011;45044;41.572;24.730;2022-12-18T07:20:42;60.58;;;44.22;;
59273;SDS011;45044;41.572;24.730;2022-12-18T07:23:11;65.57;;;48.60;;
59273;SDS011;45044;41.572;24.730;2022-12-18T07:25:38;84.90;;;62.55;;
59273;SDS011;45044;41.572;24.730;2022-12-18T07:28:05;103.55;;;73.38;;
59273;SDS011;45044;41.572;24.730;2022-12-18T07:30:37;86.20;;;62.42;;
59273;SDS011;45044;41.572;24.730;2022-12-18T07:33:08;88.05;;;61.97;;
59273;SDS011;45044;41.572;24.730;2022-12-18T07:35:35;80.65;;;56.20;;
59273;SDS011;45044;41.572;24.730;2022-12-18T07:38:02;97.20;;;68.50;;
59273;SDS011;45044;41.572;24.730;2022-12-18T07:40:28;86.18;;;61.45;;
59273;SDS011;45044;41.572;24.730;2022-12-18T07:42:55;78.38;;;58.05;;
59273;SDS011;45044;41.572;24.730;2022-12-18T07:45:24;86.18;;;60.15;;
59273;SDS011;45044;41.572;24.730;2022-12-18T07:47:51;70.35;;;52.33;;
59273;SDS011;45044;41.572;24.730;2022-12-18T07:50:18;59.63;;;45.80;;
59273;SDS011;45044;41.572;24.730;2022-12-18T07:52:45;59.92;;;46.10;;
59273;SDS011;45044;41.572;24.730;2022-12-18T07:55:12;55.58;;;40.22;;
59273;SDS011;45044;41.572;24.730;2022-12-18T07:57:39;60.65;;;46.30;;
59273;SDS011;45044;41.572;24.730;2022-12-18T08:00:17;63.92;;;47.53;;
59273;SDS011;45044;41.572;24.730;2022-12-18T08:02:46;57.58;;;45.20;;
59273;SDS011;45044;41.572;24.730;2022-12-18T08:05:13;66.55;;;48.92;;
59273;SDS011;45044;41.572;24.730;2022-12-18T08:07:40;50.83;;;36.58;;
59273;SDS011;45044;41.572;24.730;2022-12-18T08:10:07;46.08;;;34.35;;
59273;SDS011;45044;41.572;24.730;2022-12-18T08:12:34;24.17;;;15.95;;
59273;SDS011;45044;41.572;24.730;2022-12-18T08:15:01;33.67;;;24.30;;
59273;SDS011;45044;41.572;24.730;2022-12-18T08:17:28;47.15;;;33.38;;
59273;SDS011;45044;41.572;24.730;2022-12-18T08:19:54;41.38;;;28.98;;
59273;SDS011;45044;41.572;24.730;2022-12-18T08:22:21;43.33;;;35.72;;
59273;SDS011;45044;41.572;24.730;2022-12-18T08:24:48;30.42;;;22.42;;
59273;SDS011;45044;41.572;24.730;2022-12-18T08:27:15;38.90;;;32.90;;
59273;SDS011;45044;41.572;24.730;2022-12-18T08:29:57;39.38;;;29.13;;
59273;SDS011;45044;41.572;24.730;2022-12-18T08:32:25;22.90;;;16.85;;
59273;SDS011;45044;41.572;24.730;2022-12-18T08:34:52;23.05;;;17.33;;
59273;SDS011;45044;41.572;24.730;2022-12-18T08:37:19;22.23;;;16.98;;
59273;SDS011;45044;41.572;24.730;2022-12-18T08:39:46;25.70;;;20.63;;
59273;SDS011;45044;41.572;24.730;2022-12-18T08:42:12;28.30;;;22.48;;
59273;SDS011;45044;41.572;24.730;2022-12-18T08:44:58;41.03;;;31.13;;
59273;SDS011;45044;41.572;24.730;2022-12-18T08:47:25;49.85;;;39.05;;
59273;SDS011;45044;41.572;24.730;2022-12-18T08:49:52;48.50;;;37.22;;
59273;SDS011;45044;41.572;24.730;2022-12-18T08:52:19;55.05;;;43.38;;
59273;SDS011;45044;41.572;24.730;2022-12-18T08:54:46;51.13;;;41.42;;
59273;SDS011;45044;41.572;24.730;2022-12-18T08:57:12;49.78;;;38.30;;
59273;SDS011;45044;41.572;24.730;2022-12-18T08:59:39;49.17;;;37.65;;
59273;SDS011;45044;41.572;24.730;2022-12-18T09:02:07;51.70;;;40.28;;
59273;SDS011;45044;41.572;24.730;2022-12-18T09:04:37;56.30;;;44.55;;
59273;SDS011;45044;41.572;24.730;2022-12-18T09:07:03;52.25;;;44.85;;
59273;SDS011;45044;41.572;24.730;2022-12-18T09:09:30;60.10;;;50.00;;
59273;SDS011;45044;41.572;24.730;2022-12-18T09:11:57;70.28;;;50.90;;
59273;SDS011;45044;41.572;24.730;2022-12-18T09:14:24;71.53;;;52.15;;
59273;SDS011;45044;41.572;24.730;2022-12-18T09:16:50;78.53;;;56.50;;
59273;SDS011;45044;41.572;24.730;2022-12-18T09:19:17;79.38;;;56.22;;
59273;SDS011;45044;41.572;24.730;2022-12-18T09:21:44;81.53;;;58.40;;
59273;SDS011;45044;41.572;24.730;2022-12-18T09:24:14;59.22;;;45.97;;
59273;SDS011;45044;41.572;24.730;2022-12-18T09:26:41;58.22;;;45.20;;
59273;SDS011;45044;41.572;24.730;2022-12-18T09:29:12;62.33;;;44.22;;
59273;SDS011;45044;41.572;24.730;2022-12-18T09:31:41;46.90;;;36.38;;
59273;SDS011;45044;41.572;24.730;2022-12-18T09:34:08;39.25;;;32.33;;
59273;SDS011;45044;41.572;24.730;2022-12-18T09:36:35;47.53;;;34.10;;
59273;SDS011;45044;41.572;24.730;2022-12-18T09:39:02;39.35;;;32.40;;
59273;SDS011;45044;41.572;24.730;2022-12-18T09:49:39;83.93;;;60.40;;
59273;SDS011;45044;41.572;24.730;2022-12-18T09:52:12;80.18;;;55.10;;
59273;SDS011;45044;41.572;24.730;2022-12-18T09:54:46;61.67;;;49.35;;
59273;SDS011;45044;41.572;24.730;2022-12-18T09:57:19;62.17;;;49.30;;
59273;SDS011;45044;41.572;24.730;2022-12-18T09:59:50;71.68;;;55.22;;
59273;SDS011;45044;41.572;24.730;2022-12-18T10:02:21;77.43;;;62.15;;
59273;SDS011;45044;41.572;24.730;2022-12-18T10:05:02;70.35;;;56.17;;
59273;SDS011;45044;41.572;24.730;2022-12-18T10:15:46;72.25;;;60.38;;
59273;SDS011;45044;41.572;24.730;2022-12-18T10:21:11;67.82;;;55.60;;
59273;SDS011;45044;41.572;24.730;2022-12-18T10:26:17;66.80;;;50.65;;
59273;SDS011;45044;41.572;24.730;2022-12-18T10:28:44;61.47;;;44.80;;
59273;SDS011;45044;41.572;24.730;2022-12-18T10:31:14;53.40;;;41.88;;
59273;SDS011;45044;41.572;24.730;2022-12-18T10:33:43;46.88;;;38.78;;
59273;SDS011;45044;41.572;24.730;2022-12-18T10:36:10;47.17;;;37.45;;
59273;SDS011;45044;41.572;24.730;2022-12-18T10:38:37;50.45;;;38.08;;
59273;SDS011;45044;41.572;24.730;2022-12-18T10:41:23;47.35;;;35.38;;
59273;SDS011;45044;41.572;24.730;2022-12-18T10:47:02;37.83;;;26.73;;
59273;SDS011;45044;41.572;24.730;2022-12-18T10:49:37;41.42;;;29.60;;
59273;SDS011;45044;41.572;24.730;2022-12-18T10:52:24;50.15;;;33.15;;
59273;SDS011;45044;41.572;24.730;2022-12-18T10:54:56;71.22;;;48.22;;
59273;SDS011;45044;41.572;24.730;2022-12-18T10:57:38;80.70;;;54.15;;
59273;SDS011;45044;41.572;24.730;2022-12-18T11:00:40;99.35;;;67.05;;
59273;SDS011;45044;41.572;24.730;2022-12-18T11:03:02;75.18;;;54.55;;
59273;SDS011;45044;41.572;24.730;2022-12-18T11:07:57;42.95;;;32.10;;
59273;SDS011;45044;41.572;24.730;2022-12-18T11:10:30;42.13;;;30.73;;
59273;SDS011;45044;41.572;24.730;2022-12-18T11:13:18;31.30;;;22.33;;
59273;SDS011;45044;41.572;24.730;2022-12-18T11:15:50;107.28;;;62.17;;
59273;SDS011;45044;41.572;24.730;2022-12-18T11:20:59;41.90;;;31.63;;
59273;SDS011;45044;41.572;24.730;2022-12-18T11:23:34;53.90;;;36.75;;
59273;SDS011;45044;41.572;24.730;2022-12-18T11:26:03;58.67;;;41.03;;
59273;SDS011;45044;41.572;24.730;2022-12-18T11:28:37;57.42;;;40.70;;
59273;SDS011;45044;41.572;24.730;2022-12-18T11:31:12;53.85;;;38.58;;
59273;SDS011;45044;41.572;24.730;2022-12-18T11:33:44;47.28;;;33.58;;
59273;SDS011;45044;41.572;24.730;2022-12-18T11:36:46;45.00;;;34.95;;
59273;SDS011;45044;41.572;24.730;2022-12-18T11:39:24;44.33;;;33.78;;
59273;SDS011;45044;41.572;24.730;2022-12-18T11:42:04;40.75;;;30.25;;
59273;SDS011;45044;41.572;24.730;2022-12-18T11:44:41;43.63;;;30.17;;
59273;SDS011;45044;41.572;24.730;2022-12-18T11:49:59;55.80;;;40.05;;
59273;SDS011;45044;41.572;24.730;2022-12-18T11:52:30;46.25;;;31.65;;
59273;SDS011;45044;41.572;24.730;2022-12-18T11:55:15;33.15;;;23.95;;
59273;SDS011;45044;41.572;24.730;2022-12-18T11:58:07;25.20;;;19.23;;
59273;SDS011;45044;41.572;24.730;2022-12-18T12:04:14;26.10;;;19.55;;
59273;SDS011;45044;41.572;24.730;2022-12-18T12:06:51;37.22;;;29.27;;
59273;SDS011;45044;41.572;24.730;2022-12-18T12:09:33;92.82;;;53.75;;
59273;SDS011;45044;41.572;24.730;2022-12-18T12:12:10;40.97;;;31.60;;
59273;SDS011;45044;41.572;24.730;2022-12-18T12:26:43;40.33;;;31.65;;
59273;SDS011;45044;41.572;24.730;2022-12-18T12:39:39;38.47;;;28.33;;
59273;SDS011;45044;41.572;24.730;2022-12-18T12:42:15;48.63;;;37.90;;
59273;SDS011;45044;41.572;24.730;2022-12-18T12:47:35;58.25;;;35.13;;
59273;SDS011;45044;41.572;24.730;2022-12-18T12:50:16;45.17;;;30.45;;
59273;SDS011;45044;41.572;24.730;2022-12-18T12:52:50;23.65;;;14.40;;
59273;SDS011;45044;41.572;24.730;2022-12-18T12:55:21;65.10;;;36.25;;
59273;SDS011;45044;41.572;24.730;2022-12-18T12:57:54;41.05;;;32.63;;
59273;SDS011;45044;41.572;24.730;2022-12-18T13:00:22;27.33;;;18.67;;
59273;SDS011;45044;41.572;24.730;2022-12-18T13:05:29;18.65;;;13.07;;
59273;SDS011;45044;41.572;24.730;2022-12-18T13:07:59;24.35;;;19.17;;
59273;SDS011;45044;41.572;24.730;2022-12-18T13:10:33;24.75;;;19.95;;
59273;SDS011;45044;41.572;24.730;2022-12-18T13:13:11;33.22;;;22.98;;
59273;SDS011;45044;41.572;24.730;2022-12-18T13:16:03;27.63;;;18.92;;
59273;SDS011;45044;41.572;24.730;2022-12-18T13:18:32;171.93;;;104.43;;
59273;SDS011;45044;41.572;24.730;2022-12-18T13:33:45;36.33;;;24.13;;
59273;SDS011;45044;41.572;24.730;2022-12-18T13:36:33;28.83;;;22.85;;
59273;SDS011;45044;41.572;24.730;2022-12-18T13:44:32;27.20;;;16.88;;
59273;SDS011;45044;41.572;24.730;2022-12-18T13:50:09;30.58;;;22.33;;
59273;SDS011;45044;41.572;24.730;2022-12-18T13:52:47;19.65;;;13.55;;
59273;SDS011;45044;41.572;24.730;2022-12-18T13:55:16;25.98;;;19.50;;
59273;SDS011;45044;41.572;24.730;2022-12-18T13:57:45;33.85;;;20.25;;
59273;SDS011;45044;41.572;24.730;2022-12-18T14:02:49;24.80;;;17.20;;
59273;SDS011;45044;41.572;24.730;2022-12-18T14:05:34;26.08;;;18.02;;
59273;SDS011;45044;41.572;24.730;2022-12-18T14:08:06;24.25;;;18.02;;
59273;SDS011;45044;41.572;24.730;2022-12-18T14:10:41;31.30;;;23.25;;
59273;SDS011;45044;41.572;24.730;2022-12-18T14:13:30;52.60;;;37.30;;
59273;SDS011;45044;41.572;24.730;2022-12-18T14:16:01;27.35;;;19.17;;
59273;SDS011;45044;41.572;24.730;2022-12-18T14:21:44;31.60;;;23.65;;
59273;SDS011;45044;41.572;24.730;2022-12-18T14:26:47;39.92;;;25.05;;
59273;SDS011;45044;41.572;24.730;2022-12-18T14:29:26;38.75;;;20.80;;
59273;SDS011;45044;41.572;24.730;2022-12-18T14:32:05;54.83;;;33.17;;
59273;SDS011;45044;41.572;24.730;2022-12-18T14:34:44;31.92;;;20.65;;
59273;SDS011;45044;41.572;24.730;2022-12-18T14:37:13;22.80;;;17.73;;
59273;SDS011;45044;41.572;24.730;2022-12-18T14:39:52;32.53;;;21.38;;
59273;SDS011;45044;41.572;24.730;2022-12-18T14:42:20;21.30;;;16.75;;
59273;SDS011;45044;41.572;24.730;2022-12-18T14:44:47;33.00;;;25.52;;
59273;SDS011;45044;41.572;24.730;2022-12-18T14:47:34;23.88;;;17.73;;
59273;SDS011;45044;41.572;24.730;2022-12-18T14:50:00;35.10;;;24.33;;
59273;SDS011;45044;41.572;24.730;2022-12-18T14:52:27;34.47;;;24.70;;
59273;SDS011;45044;41.572;24.730;2022-12-18T14:54:57;26.40;;;21.92;;
59273;SDS011;45044;41.572;24.730;2022-12-18T14:57:25;26.48;;;17.40;;
59273;SDS011;45044;41.572;24.730;2022-12-18T15:00:05;14.50;;;7.95;;
59273;SDS011;45044;41.572;24.730;2022-12-18T15:02:41;30.90;;;20.85;;
59273;SDS011;45044;41.572;24.730;2022-12-18T15:07:42;27.52;;;21.38;;
59273;SDS011;45044;41.572;24.730;2022-12-18T15:10:13;27.77;;;23.10;;
59273;SDS011;45044;41.572;24.730;2022-12-18T15:18:00;27.92;;;17.98;;
59273;SDS011;45044;41.572;24.730;2022-12-18T15:23:22;22.50;;;16.73;;
59273;SDS011;45044;41.572;24.730;2022-12-18T15:25:55;16.20;;;12.43;;
59273;SDS011;45044;41.572;24.730;2022-12-18T15:28:46;20.85;;;17.67;;
59273;SDS011;45044;41.572;24.730;2022-12-18T15:31:23;19.88;;;14.68;;
59273;SDS011;45044;41.572;24.730;2022-12-18T15:36:19;20.83;;;17.10;;
59273;SDS011;45044;41.572;24.730;2022-12-18T15:38:52;21.02;;;14.82;;
59273;SDS011;45044;41.572;24.730;2022-12-18T15:41:31;18.77;;;13.98;;
59273;SDS011;45044;41.572;24.730;2022-12-18T15:44:01;19.20;;;14.52;;
59273;SDS011;45044;41.572;24.730;2022-12-18T15:46:29;13.40;;;8.55;;
59273;SDS011;45044;41.572;24.730;2022-12-18T15:48:57;8.63;;;5.50;;
59273;SDS011;45044;41.572;24.730;2022-12-18T15:51:29;12.48;;;8.38;;
59273;SDS011;45044;41.572;24.730;2022-12-18T15:53:59;8.68;;;5.78;;
59273;SDS011;45044;41.572;24.730;2022-12-18T15:56:30;25.63;;;16.75;;
59273;SDS011;45044;41.572;24.730;2022-12-18T15:59:17;20.83;;;13.35;;
59273;SDS011;45044;41.572;24.730;2022-12-18T16:01:46;20.88;;;13.70;;
59273;SDS011;45044;41.572;24.730;2022-12-18T16:04:15;16.23;;;10.38;;
59273;SDS011;45044;41.572;24.730;2022-12-18T16:06:43;11.82;;;8.35;;
59273;SDS011;45044;41.572;24.730;2022-12-18T16:09:30;38.65;;;22.30;;
59273;SDS011;45044;41.572;24.730;2022-12-18T16:11:57;32.83;;;22.08;;
59273;SDS011;45044;41.572;24.730;2022-12-18T16:14:24;48.25;;;28.45;;
59273;SDS011;45044;41.572;24.730;2022-12-18T16:16:57;40.20;;;27.00;;
59273;SDS011;45044;41.572;24.730;2022-12-18T16:19:26;24.88;;;16.40;;
59273;SDS011;45044;41.572;24.730;2022-12-18T16:21:54;32.45;;;22.63;;
59273;SDS011;45044;41.572;24.730;2022-12-18T16:24:32;39.20;;;26.17;;
59273;SDS011;45044;41.572;24.730;2022-12-18T16:27:00;34.05;;;19.90;;
59273;SDS011;45044;41.572;24.730;2022-12-18T16:29:27;21.00;;;15.07;;
59273;SDS011;45044;41.572;24.730;2022-12-18T16:31:55;31.70;;;18.13;;
59273;SDS011;45044;41.572;24.730;2022-12-18T16:34:27;17.42;;;13.05;;
59273;SDS011;45044;41.572;24.730;2022-12-18T16:37:01;15.35;;;11.35;;
59273;SDS011;45044;41.572;24.730;2022-12-18T16:39:32;15.70;;;8.85;;
59273;SDS011;45044;41.572;24.730;2022-12-18T16:42:01;10.25;;;8.07;;
59273;SDS011;45044;41.572;24.730;2022-12-18T16:44:31;13.60;;;11.18;;
59273;SDS011;45044;41.572;24.730;2022-12-18T16:46:59;11.57;;;8.15;;
59273;SDS011;45044;41.572;24.730;2022-12-18T16:49:28;11.73;;;7.57;;
59273;SDS011;45044;41.572;24.730;2022-12-18T16:51:56;21.83;;;12.93;;
59273;SDS011;45044;41.572;24.730;2022-12-18T16:54:23;47.80;;;25.30;;